Aktualne dane pomiarowe

Uwaga, wersja testowa! Automatyczne pobieranie danych za pomocą narzędzi lub skryptów to umożliwiających jest zabronione.

Dane meteo z obszaru Polski uzyskane na podstawie depesz SYNOP pobieranych co godzinę z NWS. Najedź myszką na symbol przedstawiony w tabeli, aby uzyskać informacje co do jego znaczenia. Prosimy pamiętać, że to testowa wersja strony, która jeszcze nie jest ukończona. Stworzono również jest krótki FAQ dotyczący korzystania z tej podstrony Anomalie temperatury w chwili obecnej odniesione są do okresu referencyjnego 1951-2016. Okres ten będzie później zmieniony na 1981-2010. Kliknij ikonę aby pobrać plik CSV. Kliknij ikonę aby wygenerować mapę synoptyczną dla danego terminu.

Wybierz Datę:    

        

Mława (12270)

Dane terminowe dla wybranej stacji. Kliknij datę, aby otrzymać dane z tego terminu dla wszystkich stacji.

TemperaturaZachmurzenieWiatrCiśnienieOpadyPogoda
 Data t td wb tx tn tg rh  Nt Nl Cl Cm Ch ws wd g1 g2 wx mslp ppp ch 24h 12h t ww ww w1 w2  
2019-08-08 23:00:00 14.2 13.6 13.7--- 9623.0wxwxwxwx2wx--21011.3 993.6 1.0---wx-w1w2--
2019-08-08 22:00:00 14.6 13.3 13.7--- 926.0wxwxwx2wx--21011.8 994.1 2.0---wx-w1w2--
2019-08-08 21:00:00 16.7 11.8 13.5--- 7350.0wxwxwx5wx131351011.2 993.7 1.5---wx---
2019-08-08 20:00:00 18.0 13.3 14.9--- 7450.0wxwxwxwx3wx---1010.0 992.6 0.6---wx---
2019-08-08 19:00:00 18.6 13.9 15.5--- 7450.0wxwxwx2wx--21009.5 992.1 0.2---wx---
2019-08-08 18:00:00 20.8 13.5 16.1 25.0 18.2- 6350.0wxwxwxwx0--1201009.5 992.2 0.3- 0.012------
2019-08-08 17:00:00 22.2 12.7 16.3--- 5545.0wxwxwx2wx--21009.2 992.0 0.5---------
2019-08-08 16:00:00 24.3 10.9 16.3--- 4345.0wxwxwx6wx---1009.0 991.9 0.2---------
2019-08-08 15:00:00 23.9 10.9 16.1--- 4450.0wxwxwx6wx---1009.0 991.9 0.6---------
2019-08-08 14:00:00 24.3 10.6 16.2--- 4240.0wxwxwx7wx--71008.5 991.5 0.7---------
2019-08-08 13:00:00 23.7 11.4 16.3--- 4645.0wxwxwx8wx--81008.8 991.7 1.1---------
2019-08-08 12:00:00 23.1 13.6 17.1--- 5535.0wxwxwx7wx-1271008.4 991.3 1.0- 0.06------
2019-08-08 11:00:00 23.3 13.7 17.2--- 5535.0wxwxwx7wx--71007.9 990.8 1.2---------
2019-08-08 10:00:00 22.6 14.2 17.2--- 5935.0wxwxwx7wx-1271007.7 990.6 2.0---------
2019-08-08 09:00:00 20.7 15.7 17.3--- 7340.0wxwxwx7wx-1171007.5 990.3 2.4---------
2019-08-08 08:00:00 19.5 15.8 17.0--- 7929.0wxwxwx8wx--81006.9 989.6 2.3---------
2019-08-08 07:00:00 18.4 16.9 17.3--- 9118.0wxwxwx5wx--51005.9 988.6 1.6---------
2019-08-08 06:00:00 18.2 17.2 17.5 22.8 17.3 17 9410.0wxwxwx5wx--51005.2 987.9 0.7 0.9 0.912wx-w1- 7.1
2019-08-08 05:00:00 17.7 17.1 17.3--- 968.0wxwxwxwx4wx---1004.7 987.3 0.0---wx---
2019-08-08 04:00:00 17.4 16.9 17.0--- 979.0wxwxwx3wx---1004.4 987.0 -0.1---wx---
2019-08-08 03:00:00 17.4 17.1 17.2--- 989.0wxwxwx3wx--31004.6 987.2 -0.1---wx-w1--
2019-08-08 02:00:00 17.5 17.3 17.3--- 995.0wxwxwx3wx--31004.7 987.3 0.0---wx---
2019-08-08 01:00:00 17.6 17.4 17.4--- 995.0wxwxwx3wx--31004.5 987.1 -0.4---wx-w1w2--
2019-08-08 00:00:00 18.0 17.7 17.8--- 986.0wxwxwx2wx-721004.6 987.3 -0.9- 0.66wx-w1--
2019-08-07 23:00:00 18.3 17.7 17.9--- 9613.0wxwxwxwx2wx--21004.6 987.3 -0.8---wx---
2019-08-07 22:00:00 18.6 17.4 17.7--- 9328.0wxwxwx1wx--11004.8 987.5 -0.7---wx---
2019-08-07 21:00:00 19.0 17.1 17.6--- 8918.0wxwxwx4wx-741005.5 988.2 -0.2---wx-w1--
2019-08-07 20:00:00 21.3 16.5 18.0--- 7424.0wxwxwxwxwx2wx---1005.3 988.1 -0.6---wx---
2019-08-07 19:00:00 21.6 15.9 17.8--- 7040.0wxwxwxwxwx2wx---1005.3 988.2 -0.6---------
2019-08-07 18:00:00 22.8 15.6 18.1 27.1 17.8- 6445.0wxwxwxwxwx2wx--21005.5 988.4 -0.8- 0.012------
2019-08-07 17:00:00 24.5 15.4 18.6--- 5745.0wxwxwxwxwx3wx--31005.7 988.7 -0.9---------
2019-08-07 16:00:00 26.3 13.4 18.3--- 4535.0wxwxwxwxwx2wx--21005.7 988.8 -1.3---------
2019-08-07 15:00:00 26.6 14.0 18.7--- 4627.0wxwxwxwxwx2wx--21006.1 989.2 -1.3---------
2019-08-07 14:00:00 26.9 13.6 18.6--- 4440.0wxwxwxwx3wx---1006.5 989.6 -1.1---------
2019-08-07 13:00:00 25.8 13.3 18.0--- 4645.0wxwxwxwx4wx--41007.0 990.1 -0.9---------
2019-08-07 12:00:00 25.5 15.5 19.0--- 5430.0wxwxwxwx3wx--31007.5 990.5 -0.5- 0.06------
2019-08-07 11:00:00 25.0 14.8 18.5--- 5340.0wxwxwxwx1wx--11007.7 990.7 -0.6---------
2019-08-07 10:00:00 24.0 15.2 18.3--- 5835.0wxwxwxwx1wx--11008.1 991.0 0.2---------
2019-08-07 09:00:00 23.0 16.3 18.5--- 6628.0wxwxwxwx1wx--11008.1 991.0 0.3---------
2019-08-07 08:00:00 21.2 16.4 17.9--- 7430.0wxwxwxwx1wx--11008.5 991.3 1.0---------
2019-08-07 07:00:00 20.0 17.6 18.3--- 8620.0wxwxwxwx0---01008.1 990.8 0.3---------
2019-08-07 06:00:00 17.8 16.5 16.9 18.4 16.0 15 9214.0wxwxwxwxwx1wx-1011008.1 990.7 0.6 10.2 5.012wx-w1- 6.3
2019-08-07 05:00:00 16.7 16.4 16.5--- 986.0wxwxwxwx1wx--11007.8 990.3 -1.1---wx---
2019-08-07 04:00:00 16.3 15.8 15.9--- 978.0wxwxwxwx1wx---1008.0 990.5 0.0---wx---
2019-08-07 03:00:00 16.7 15.9 16.1--- 9517.0wxwxwx2wx-1021007.6 990.1 -0.6---wx---
2019-08-07 02:00:00 16.5 15.9 16.0--- 969.0wxwxwx2wx-1021008.9 991.4 -0.1---wx---
2019-08-07 01:00:00 16.0 15.2 15.4--- 9512.0wxwxwxwx1wx--11008.0 990.5 -0.4---wx---
2019-08-07 00:00:00 16.4 15.6 15.8--- 958.0wx-wx2wx--21008.2 990.7 -0.3- 0.16wx-w1w2--
1.1 ms

 

Print Friendly, PDF & Email